createdAt,value
2023-02-17T00:03:35.831Z,48.9
2023-02-17T00:09:00.338Z,48.8
2023-02-17T00:14:37.436Z,48.7
2023-02-17T00:20:15.312Z,48.6
2023-02-17T00:25:37.167Z,48.5
2023-02-17T00:31:14.351Z,48.4
2023-02-17T00:36:52.049Z,48.3
2023-02-17T00:42:29.353Z,48.3
2023-02-17T00:48:06.242Z,48.2
2023-02-17T00:53:44.342Z,48.1
2023-02-17T00:59:21.352Z,47.9
2023-02-17T01:04:42.856Z,47.9
2023-02-17T01:10:20.591Z,47.8
2023-02-17T01:15:42.774Z,47.8
2023-02-17T01:21:19.639Z,47.6
2023-02-17T01:26:57.056Z,47.6
2023-02-17T01:32:34.883Z,47.4
2023-02-17T01:37:56.629Z,47.4
2023-02-17T01:43:34.210Z,47.3
2023-02-17T01:48:56.404Z,47.2
2023-02-17T01:54:17.539Z,47.1
2023-02-17T01:59:55.414Z,47.1
2023-02-17T02:05:33.462Z,46.9
2023-02-17T02:11:10.180Z,46.9
2023-02-17T02:16:47.676Z,46.8
2023-02-17T02:22:24.873Z,46.7
2023-02-17T02:28:01.350Z,46.6
2023-02-17T02:33:39.479Z,46.6
2023-02-17T02:39:16.592Z,46.5
2023-02-17T02:44:38.089Z,46.4
2023-02-17T02:50:00.762Z,46.3
2023-02-17T02:55:07.076Z,46.3
2023-02-17T03:00:43.777Z,46.1
2023-02-17T03:06:21.117Z,46.1
2023-02-17T03:11:57.645Z,46
2023-02-17T03:17:34.434Z,45.9
2023-02-17T03:23:11.764Z,45.8
2023-02-17T03:28:49.382Z,45.8
2023-02-17T03:34:26.788Z,45.7
2023-02-17T03:39:49.614Z,45.6
2023-02-17T03:45:26.025Z,45.5
2023-02-17T03:51:02.510Z,45.4
2023-02-17T03:56:24.793Z,45.4
2023-02-17T04:02:02.020Z,45.3
2023-02-17T04:07:39.617Z,45.2
2023-02-17T04:13:17.168Z,45.1
2023-02-17T04:18:54.716Z,45.1
2023-02-17T04:24:31.692Z,44.9
2023-02-17T04:29:53.030Z,44.9
2023-02-17T04:35:19.329Z,44.8
2023-02-17T04:40:59.544Z,44.8
2023-02-17T04:46:38.306Z,44.7
2023-02-17T04:52:14.391Z,44.6
2023-02-17T04:57:51.669Z,44.6
2023-02-17T05:03:13.605Z,44.4
2023-02-17T05:08:51.326Z,43.5
2023-02-17T05:14:29.067Z,43.3
2023-02-17T05:20:07.182Z,43.3
2023-02-17T05:25:44.874Z,43.2
2023-02-17T05:31:07.333Z,43.1
2023-02-17T05:36:45.372Z,43.1
2023-02-17T05:42:23.083Z,43
2023-02-17T05:48:00.602Z,42.9
2023-02-17T05:53:37.992Z,42.9
2023-02-17T05:59:15.875Z,42.8
2023-02-17T06:04:53.911Z,42.8
2023-02-17T06:10:31.462Z,41.8
2023-02-17T06:15:52.562Z,41.7
2023-02-17T06:21:32.525Z,41.6
2023-02-17T06:26:55.276Z,41.6
2023-02-17T06:32:33.721Z,41.5
2023-02-17T06:38:10.115Z,41.4
2023-02-17T06:43:47.590Z,41.1
2023-02-17T06:49:25.392Z,41
2023-02-17T06:55:02.665Z,40.9
2023-02-17T07:00:39.896Z,40.4
2023-02-17T07:06:18.712Z,38.3
2023-02-17T07:11:40.621Z,38.1
2023-02-17T07:17:02.850Z,38
2023-02-17T07:22:40.930Z,37.9
2023-02-17T07:28:18.780Z,37.9
2023-02-17T07:33:40.887Z,37.9
2023-02-17T07:39:04.592Z,37.8
2023-02-17T07:44:42.385Z,37.8
2023-02-17T07:50:21.329Z,37.8
2023-02-17T07:55:58.186Z,37.7
2023-02-17T08:01:36.121Z,37.7
2023-02-17T08:07:13.701Z,37.6
2023-02-17T08:12:52.956Z,37.6
2023-02-17T08:18:32.404Z,37.6
2023-02-17T08:24:07.346Z,37.5
2023-02-17T08:29:44.992Z,37.5
2023-02-17T08:35:23.351Z,37.4
2023-02-17T08:41:00.183Z,37.4
2023-02-17T08:46:22.096Z,37.2
2023-02-17T08:52:01.240Z,35.8
2023-02-17T08:57:35.568Z,35.2
2023-02-17T09:03:13.561Z,35.6
2023-02-17T09:08:36.705Z,36.5
2023-02-17T09:14:00.969Z,37.4
2023-02-17T09:19:38.906Z,38.3
2023-02-17T09:25:23.607Z,39.3
2023-02-17T09:30:45.949Z,40
2023-02-17T09:36:09.178Z,40.9
2023-02-17T09:41:47.819Z,41.8
2023-02-17T09:47:35.321Z,42.7
2023-02-17T09:52:57.711Z,43.5
2023-02-17T09:58:21.862Z,44.3
2023-02-17T10:04:02.988Z,45.1
2023-02-17T10:09:41.030Z,45.8
2023-02-17T10:14:48.758Z,46.5
2023-02-17T10:20:27.810Z,47.1
2023-02-17T10:26:05.348Z,47.8
2023-02-17T10:31:43.345Z,48.5
2023-02-17T10:37:24.712Z,49.1
2023-02-17T10:42:31.461Z,49.6
2023-02-17T10:47:41.705Z,50.1
2023-02-17T10:53:07.258Z,50.7
2023-02-17T10:58:43.585Z,51.3
2023-02-17T11:09:11.892Z,52.6
2023-02-17T11:14:49.775Z,53.1
2023-02-17T11:20:30.931Z,53.7
2023-02-17T11:25:54.785Z,54.3
2023-02-17T11:31:32.974Z,54.8
2023-02-17T11:37:11.333Z,55.4
2023-02-17T11:42:33.441Z,55.9
2023-02-17T11:48:10.387Z,56.3
2023-02-17T11:53:47.382Z,56.8
2023-02-17T11:59:25.549Z,57.2
2023-02-17T12:05:02.294Z,57.6
2023-02-17T12:10:25.035Z,58
2023-02-17T12:15:46.469Z,58.4
2023-02-17T12:20:52.847Z,58.7
2023-02-17T12:26:32.063Z,58.9
2023-02-17T12:31:54.660Z,59.2
2023-02-17T12:37:16.762Z,59.4
2023-02-17T12:42:38.659Z,59.7
2023-02-17T12:48:00.524Z,59.9
2023-02-17T12:53:23.893Z,60
2023-02-17T12:58:47.612Z,60.1
2023-02-17T13:04:09.993Z,60.3
2023-02-17T13:09:31.870Z,60.4
2023-02-17T13:14:37.619Z,60.4
2023-02-17T13:19:59.798Z,60.4
2023-02-17T13:25:21.810Z,60.3
2023-02-17T13:30:43.061Z,60.4
2023-02-17T13:36:05.844Z,60.3
2023-02-17T13:41:28.820Z,60.3
2023-02-17T13:46:52.421Z,60.3
2023-02-17T13:52:30.389Z,60.2
2023-02-17T13:57:53.953Z,60.2
2023-02-17T14:03:25.132Z,60.1
2023-02-17T14:08:47.490Z,60.1
2023-02-17T14:14:09.935Z,60.1
2023-02-17T14:19:50.309Z,60
2023-02-17T14:25:37.560Z,59.9
2023-02-17T14:31:14.906Z,59.9
2023-02-17T14:36:52.360Z,59.9
2023-02-17T14:42:30.030Z,59.8
2023-02-17T14:48:07.593Z,59.8
2023-02-17T14:53:31.015Z,59.7
2023-02-17T14:59:08.271Z,59.7
2023-02-17T15:04:45.442Z,59.6
2023-02-17T15:10:27.141Z,59.6
2023-02-17T15:16:04.653Z,59.6
2023-02-17T15:21:42.073Z,59.5
2023-02-17T15:27:24.193Z,59.4
2023-02-17T15:33:03.893Z,59.4
2023-02-17T15:38:42.219Z,59.4
2023-02-17T15:44:07.492Z,59.3
2023-02-17T15:49:46.375Z,59.3
2023-02-17T15:55:09.338Z,59.2
2023-02-17T16:00:47.300Z,59.2
2023-02-17T16:06:25.884Z,59.1
2023-02-17T16:12:03.134Z,59.1
2023-02-17T16:17:40.158Z,59
2023-02-17T16:23:18.399Z,59
2023-02-17T16:28:41.193Z,58.9
2023-02-17T16:34:04.818Z,58.9
2023-02-17T16:39:28.993Z,58.9
2023-02-17T16:45:07.315Z,58.8
2023-02-17T16:50:47.693Z,58.8
2023-02-17T16:56:25.625Z,58.7
2023-02-17T17:02:02.633Z,58.7
2023-02-17T17:07:42.248Z,58.6
2023-02-17T17:19:02.110Z,58.5
2023-02-17T17:24:39.159Z,58.4
2023-02-17T17:30:01.562Z,58.4
2023-02-17T17:35:24.163Z,58.4
2023-02-17T17:40:48.951Z,58.3
2023-02-17T17:46:13.181Z,58.3
2023-02-17T17:51:33.175Z,58.3
2023-02-17T17:57:09.874Z,58.2
2023-02-17T18:02:51.630Z,58.1
2023-02-17T18:08:12.911Z,58.1
2023-02-17T18:14:03.050Z,58
2023-02-17T18:19:40.593Z,57.9
2023-02-17T18:25:18.334Z,57.9
2023-02-17T18:30:59.652Z,57.9
2023-02-17T18:36:38.237Z,57.8
2023-02-17T18:42:16.113Z,57.8
2023-02-17T18:53:15.300Z,57.7
2023-02-17T18:58:36.582Z,57.6
2023-02-17T19:04:13.761Z,57.6
2023-02-17T19:09:50.831Z,57.6
2023-02-17T19:15:27.351Z,57.5
2023-02-17T19:21:04.263Z,57.4
2023-02-17T19:26:42.127Z,57.4
2023-02-17T19:32:20.044Z,57.4
2023-02-17T19:37:57.239Z,57.3
2023-02-17T19:43:36.888Z,57.3
2023-02-17T19:48:58.938Z,57.2
2023-02-17T19:54:35.866Z,57.1
2023-02-17T20:00:13.114Z,57.1
2023-02-17T20:05:34.758Z,57.1
2023-02-17T20:11:11.922Z,57
2023-02-17T20:16:53.804Z,56.9
2023-02-17T20:22:30.862Z,56.9
2023-02-17T20:28:07.938Z,56.9
2023-02-17T20:33:30.632Z,56.8
2023-02-17T20:39:08.855Z,56.8
2023-02-17T20:44:30.641Z,56.8
2023-02-17T20:50:10.205Z,56.7
2023-02-17T20:55:47.506Z,56.6
2023-02-17T21:01:25.282Z,56.6
2023-02-17T21:07:03.825Z,56.6
2023-02-17T21:12:39.946Z,56.5
2023-02-17T21:18:17.631Z,56.4
2023-02-17T21:23:55.191Z,56.4
2023-02-17T21:29:32.351Z,56.4
2023-02-17T21:35:10.059Z,56.3
2023-02-17T21:40:47.295Z,56.3
2023-02-17T21:46:10.976Z,56.2
2023-02-17T21:51:33.061Z,56.2
2023-02-17T21:56:56.135Z,56.1
2023-02-17T22:02:32.421Z,56.1
2023-02-17T22:07:53.597Z,56.1
2023-02-17T22:13:14.460Z,56
2023-02-17T22:18:51.074Z,55.9
2023-02-17T22:24:27.636Z,55.9
2023-02-17T22:30:05.170Z,55.8
2023-02-17T22:35:43.464Z,55.8
2023-02-17T22:41:19.706Z,55.8
2023-02-17T22:46:56.945Z,55.7
2023-02-17T22:52:34.806Z,55.7
2023-02-17T22:58:11.528Z,55.6
2023-02-17T23:03:33.569Z,55.6
2023-02-17T23:08:58.871Z,55.6
2023-02-17T23:14:36.090Z,55.5
2023-02-17T23:20:13.882Z,55.4
2023-02-17T23:25:51.521Z,55.4
2023-02-17T23:31:28.998Z,55.4
2023-02-17T23:37:05.712Z,55.3
2023-02-17T23:42:28.150Z,55.3
2023-02-17T23:48:06.192Z,55.2
2023-02-17T23:53:44.310Z,55.2
2023-02-17T23:59:21.798Z,55.1
